sensor_id;sensor_type;location;lat;lon;timestamp;P1;durP1;ratioP1;P2;durP2;ratioP2
17595;SDS011;8916;47.086;15.920;2023-04-29T00:00:08;23.42;;;11.23;;
17595;SDS011;8916;47.086;15.920;2023-04-29T00:02:39;21.13;;;12.05;;
17595;SDS011;8916;47.086;15.920;2023-04-29T00:05:10;20.17;;;11.18;;
17595;SDS011;8916;47.086;15.920;2023-04-29T00:07:40;20.92;;;11.65;;
17595;SDS011;8916;47.086;15.920;2023-04-29T00:10:09;23.58;;;10.85;;
17595;SDS011;8916;47.086;15.920;2023-04-29T00:12:40;22.65;;;10.07;;
17595;SDS011;8916;47.086;15.920;2023-04-29T00:15:10;23.63;;;10.27;;
17595;SDS011;8916;47.086;15.920;2023-04-29T00:17:39;20.23;;;10.98;;
17595;SDS011;8916;47.086;15.920;2023-04-29T00:20:10;17.67;;;10.25;;
17595;SDS011;8916;47.086;15.920;2023-04-29T00:22:40;22.25;;;10.70;;
17595;SDS011;8916;47.086;15.920;2023-04-29T00:25:10;20.42;;;11.43;;
17595;SDS011;8916;47.086;15.920;2023-04-29T00:27:39;20.23;;;10.80;;
17595;SDS011;8916;47.086;15.920;2023-04-29T00:30:09;16.38;;;9.80;;
17595;SDS011;8916;47.086;15.920;2023-04-29T00:32:39;16.50;;;9.65;;
17595;SDS011;8916;47.086;15.920;2023-04-29T00:35:09;19.25;;;9.85;;
17595;SDS011;8916;47.086;15.920;2023-04-29T00:37:39;18.35;;;11.05;;
17595;SDS011;8916;47.086;15.920;2023-04-29T00:40:09;20.70;;;10.45;;
17595;SDS011;8916;47.086;15.920;2023-04-29T00:42:39;21.02;;;11.35;;
17595;SDS011;8916;47.086;15.920;2023-04-29T00:45:09;21.02;;;10.93;;
17595;SDS011;8916;47.086;15.920;2023-04-29T00:47:39;19.17;;;11.85;;
17595;SDS011;8916;47.086;15.920;2023-04-29T00:50:10;22.20;;;11.55;;
17595;SDS011;8916;47.086;15.920;2023-04-29T00:52:39;20.45;;;10.68;;
17595;SDS011;8916;47.086;15.920;2023-04-29T00:55:10;20.10;;;10.75;;
17595;SDS011;8916;47.086;15.920;2023-04-29T00:57:40;16.95;;;9.82;;
17595;SDS011;8916;47.086;15.920;2023-04-29T01:00:10;16.02;;;9.85;;
17595;SDS011;8916;47.086;15.920;2023-04-29T01:02:41;17.35;;;9.60;;
17595;SDS011;8916;47.086;15.920;2023-04-29T01:05:13;17.77;;;9.85;;
17595;SDS011;8916;47.086;15.920;2023-04-29T01:07:45;18.55;;;10.38;;
17595;SDS011;8916;47.086;15.920;2023-04-29T01:10:26;17.00;;;10.05;;
17595;SDS011;8916;47.086;15.920;2023-04-29T01:12:58;20.50;;;10.68;;
17595;SDS011;8916;47.086;15.920;2023-04-29T01:15:37;19.80;;;10.45;;
17595;SDS011;8916;47.086;15.920;2023-04-29T01:18:17;21.27;;;10.98;;
17595;SDS011;8916;47.086;15.920;2023-04-29T01:20:54;18.20;;;10.45;;
17595;SDS011;8916;47.086;15.920;2023-04-29T01:23:27;20.23;;;10.90;;
17595;SDS011;8916;47.086;15.920;2023-04-29T01:25:57;21.63;;;10.77;;
17595;SDS011;8916;47.086;15.920;2023-04-29T01:28:44;17.17;;;10.40;;
17595;SDS011;8916;47.086;15.920;2023-04-29T01:31:22;20.02;;;9.45;;
17595;SDS011;8916;47.086;15.920;2023-04-29T01:33:59;17.95;;;10.10;;
17595;SDS011;8916;47.086;15.920;2023-04-29T01:36:39;16.95;;;9.23;;
17595;SDS011;8916;47.086;15.920;2023-04-29T01:39:24;19.15;;;9.98;;
17595;SDS011;8916;47.086;15.920;2023-04-29T01:42:09;15.73;;;9.23;;
17595;SDS011;8916;47.086;15.920;2023-04-29T01:47:19;16.40;;;9.40;;
17595;SDS011;8916;47.086;15.920;2023-04-29T01:49:52;15.20;;;9.13;;
17595;SDS011;8916;47.086;15.920;2023-04-29T01:52:21;14.63;;;8.85;;
17595;SDS011;8916;47.086;15.920;2023-04-29T01:54:56;14.55;;;8.63;;
17595;SDS011;8916;47.086;15.920;2023-04-29T01:57:34;16.77;;;9.00;;
17595;SDS011;8916;47.086;15.920;2023-04-29T02:00:17;17.50;;;8.70;;
17595;SDS011;8916;47.086;15.920;2023-04-29T02:02:50;14.55;;;8.73;;
17595;SDS011;8916;47.086;15.920;2023-04-29T02:05:32;13.40;;;8.35;;
17595;SDS011;8916;47.086;15.920;2023-04-29T02:08:02;14.93;;;8.63;;
17595;SDS011;8916;47.086;15.920;2023-04-29T02:10:39;17.40;;;8.32;;
17595;SDS011;8916;47.086;15.920;2023-04-29T02:13:31;14.65;;;8.77;;
17595;SDS011;8916;47.086;15.920;2023-04-29T02:16:07;15.65;;;9.10;;
17595;SDS011;8916;47.086;15.920;2023-04-29T02:18:41;17.05;;;8.35;;
17595;SDS011;8916;47.086;15.920;2023-04-29T02:21:11;12.50;;;8.05;;
17595;SDS011;8916;47.086;15.920;2023-04-29T02:23:40;13.63;;;8.25;;
17595;SDS011;8916;47.086;15.920;2023-04-29T02:26:10;15.27;;;9.63;;
17595;SDS011;8916;47.086;15.920;2023-04-29T02:28:41;15.13;;;8.50;;
17595;SDS011;8916;47.086;15.920;2023-04-29T02:31:10;14.45;;;8.93;;
17595;SDS011;8916;47.086;15.920;2023-04-29T02:33:44;15.88;;;8.98;;
17595;SDS011;8916;47.086;15.920;2023-04-29T02:36:13;16.15;;;8.70;;
17595;SDS011;8916;47.086;15.920;2023-04-29T02:38:43;17.75;;;9.80;;
17595;SDS011;8916;47.086;15.920;2023-04-29T02:41:16;19.52;;;10.02;;
17595;SDS011;8916;47.086;15.920;2023-04-29T02:43:47;18.92;;;10.32;;
17595;SDS011;8916;47.086;15.920;2023-04-29T02:46:16;24.13;;;10.98;;
17595;SDS011;8916;47.086;15.920;2023-04-29T02:48:46;17.17;;;9.52;;
17595;SDS011;8916;47.086;15.920;2023-04-29T02:51:15;20.65;;;9.52;;
17595;SDS011;8916;47.086;15.920;2023-04-29T02:53:44;20.83;;;9.88;;
17595;SDS011;8916;47.086;15.920;2023-04-29T02:56:13;17.73;;;9.07;;
17595;SDS011;8916;47.086;15.920;2023-04-29T02:58:43;19.13;;;8.95;;
17595;SDS011;8916;47.086;15.920;2023-04-29T03:01:13;18.20;;;8.82;;
17595;SDS011;8916;47.086;15.920;2023-04-29T03:03:42;15.75;;;9.20;;
17595;SDS011;8916;47.086;15.920;2023-04-29T03:06:12;21.00;;;9.90;;
17595;SDS011;8916;47.086;15.920;2023-04-29T03:08:42;15.30;;;8.32;;
17595;SDS011;8916;47.086;15.920;2023-04-29T03:11:11;13.98;;;8.57;;
17595;SDS011;8916;47.086;15.920;2023-04-29T03:13:40;15.38;;;8.43;;
17595;SDS011;8916;47.086;15.920;2023-04-29T03:16:11;13.13;;;8.20;;
17595;SDS011;8916;47.086;15.920;2023-04-29T03:18:43;12.00;;;7.38;;
17595;SDS011;8916;47.086;15.920;2023-04-29T03:21:12;15.18;;;7.63;;
17595;SDS011;8916;47.086;15.920;2023-04-29T03:23:41;14.38;;;8.70;;
17595;SDS011;8916;47.086;15.920;2023-04-29T03:26:17;15.60;;;8.20;;
17595;SDS011;8916;47.086;15.920;2023-04-29T03:28:46;15.38;;;9.05;;
17595;SDS011;8916;47.086;15.920;2023-04-29T03:31:16;14.10;;;8.23;;
17595;SDS011;8916;47.086;15.920;2023-04-29T03:33:47;13.35;;;7.72;;
17595;SDS011;8916;47.086;15.920;2023-04-29T03:36:17;16.20;;;7.82;;
17595;SDS011;8916;47.086;15.920;2023-04-29T03:38:56;11.80;;;7.47;;
17595;SDS011;8916;47.086;15.920;2023-04-29T03:41:26;12.73;;;7.32;;
17595;SDS011;8916;47.086;15.920;2023-04-29T03:43:55;15.02;;;8.77;;
17595;SDS011;8916;47.086;15.920;2023-04-29T03:46:29;15.95;;;7.70;;
17595;SDS011;8916;47.086;15.920;2023-04-29T03:49:00;15.25;;;7.70;;
17595;SDS011;8916;47.086;15.920;2023-04-29T03:51:30;14.98;;;8.18;;
17595;SDS011;8916;47.086;15.920;2023-04-29T03:54:11;15.35;;;7.95;;
17595;SDS011;8916;47.086;15.920;2023-04-29T03:56:41;15.85;;;8.40;;
17595;SDS011;8916;47.086;15.920;2023-04-29T03:59:11;12.07;;;7.30;;
17595;SDS011;8916;47.086;15.920;2023-04-29T04:01:43;17.88;;;7.68;;
17595;SDS011;8916;47.086;15.920;2023-04-29T04:04:12;15.93;;;7.75;;
17595;SDS011;8916;47.086;15.920;2023-04-29T04:06:45;13.88;;;8.07;;
17595;SDS011;8916;47.086;15.920;2023-04-29T04:09:20;12.82;;;7.43;;
17595;SDS011;8916;47.086;15.920;2023-04-29T04:11:49;16.15;;;7.97;;
17595;SDS011;8916;47.086;15.920;2023-04-29T04:14:19;13.80;;;7.95;;
17595;SDS011;8916;47.086;15.920;2023-04-29T04:16:50;12.57;;;7.35;;
17595;SDS011;8916;47.086;15.920;2023-04-29T04:19:20;11.93;;;7.25;;
17595;SDS011;8916;47.086;15.920;2023-04-29T04:21:50;11.00;;;7.50;;
17595;SDS011;8916;47.086;15.920;2023-04-29T04:24:19;17.52;;;8.23;;
17595;SDS011;8916;47.086;15.920;2023-04-29T04:26:48;14.50;;;6.88;;
17595;SDS011;8916;47.086;15.920;2023-04-29T04:29:22;13.68;;;7.72;;
17595;SDS011;8916;47.086;15.920;2023-04-29T04:31:59;15.18;;;8.70;;
17595;SDS011;8916;47.086;15.920;2023-04-29T04:34:30;12.27;;;7.72;;
17595;SDS011;8916;47.086;15.920;2023-04-29T04:37:01;13.10;;;7.65;;
17595;SDS011;8916;47.086;15.920;2023-04-29T04:39:31;14.50;;;7.85;;
17595;SDS011;8916;47.086;15.920;2023-04-29T04:42:01;10.88;;;7.18;;
17595;SDS011;8916;47.086;15.920;2023-04-29T04:44:32;14.20;;;7.85;;
17595;SDS011;8916;47.086;15.920;2023-04-29T04:47:13;15.45;;;8.25;;
17595;SDS011;8916;47.086;15.920;2023-04-29T04:49:56;16.05;;;7.93;;
17595;SDS011;8916;47.086;15.920;2023-04-29T04:52:26;17.20;;;8.75;;
17595;SDS011;8916;47.086;15.920;2023-04-29T04:55:03;18.40;;;9.10;;
17595;SDS011;8916;47.086;15.920;2023-04-29T04:57:35;13.30;;;8.45;;
17595;SDS011;8916;47.086;15.920;2023-04-29T05:00:05;13.68;;;8.68;;
17595;SDS011;8916;47.086;15.920;2023-04-29T05:02:37;15.27;;;8.90;;
17595;SDS011;8916;47.086;15.920;2023-04-29T05:05:06;15.20;;;8.68;;
17595;SDS011;8916;47.086;15.920;2023-04-29T05:07:38;15.93;;;8.82;;
17595;SDS011;8916;47.086;15.920;2023-04-29T05:10:08;15.85;;;8.85;;
17595;SDS011;8916;47.086;15.920;2023-04-29T05:12:47;15.98;;;9.57;;
17595;SDS011;8916;47.086;15.920;2023-04-29T05:15:16;16.23;;;8.40;;
17595;SDS011;8916;47.086;15.920;2023-04-29T05:17:49;14.10;;;9.32;;
17595;SDS011;8916;47.086;15.920;2023-04-29T05:20:18;14.32;;;9.43;;
17595;SDS011;8916;47.086;15.920;2023-04-29T05:22:48;14.65;;;8.45;;
17595;SDS011;8916;47.086;15.920;2023-04-29T05:25:17;14.45;;;8.98;;
17595;SDS011;8916;47.086;15.920;2023-04-29T05:27:46;15.55;;;9.38;;
17595;SDS011;8916;47.086;15.920;2023-04-29T05:30:18;16.35;;;10.02;;
17595;SDS011;8916;47.086;15.920;2023-04-29T05:32:50;16.45;;;9.63;;
17595;SDS011;8916;47.086;15.920;2023-04-29T05:35:21;17.40;;;9.35;;
17595;SDS011;8916;47.086;15.920;2023-04-29T05:37:51;17.55;;;10.23;;
17595;SDS011;8916;47.086;15.920;2023-04-29T05:40:40;19.38;;;9.40;;
17595;SDS011;8916;47.086;15.920;2023-04-29T05:43:29;17.15;;;9.88;;
17595;SDS011;8916;47.086;15.920;2023-04-29T05:45:59;15.80;;;9.70;;
17595;SDS011;8916;47.086;15.920;2023-04-29T05:48:31;13.32;;;8.55;;
17595;SDS011;8916;47.086;15.920;2023-04-29T05:51:01;15.95;;;9.50;;
17595;SDS011;8916;47.086;15.920;2023-04-29T05:53:32;15.77;;;8.60;;
17595;SDS011;8916;47.086;15.920;2023-04-29T05:56:02;16.65;;;9.10;;
17595;SDS011;8916;47.086;15.920;2023-04-29T05:58:37;15.00;;;8.43;;
17595;SDS011;8916;47.086;15.920;2023-04-29T06:01:07;16.23;;;9.48;;
17595;SDS011;8916;47.086;15.920;2023-04-29T06:03:37;13.02;;;8.15;;
17595;SDS011;8916;47.086;15.920;2023-04-29T06:06:37;16.15;;;8.77;;
17595;SDS011;8916;47.086;15.920;2023-04-29T06:09:41;16.10;;;8.23;;
17595;SDS011;8916;47.086;15.920;2023-04-29T06:12:11;13.50;;;8.50;;
17595;SDS011;8916;47.086;15.920;2023-04-29T06:14:42;14.90;;;8.38;;
17595;SDS011;8916;47.086;15.920;2023-04-29T06:17:11;13.73;;;7.75;;
17595;SDS011;8916;47.086;15.920;2023-04-29T06:19:43;12.15;;;7.80;;
17595;SDS011;8916;47.086;15.920;2023-04-29T06:22:12;15.38;;;7.70;;
17595;SDS011;8916;47.086;15.920;2023-04-29T06:24:49;13.82;;;6.97;;
17595;SDS011;8916;47.086;15.920;2023-04-29T06:27:30;12.23;;;7.30;;
17595;SDS011;8916;47.086;15.920;2023-04-29T06:30:00;9.90;;;5.88;;
17595;SDS011;8916;47.086;15.920;2023-04-29T06:32:29;10.45;;;6.43;;
17595;SDS011;8916;47.086;15.920;2023-04-29T06:35:00;9.70;;;6.28;;
17595;SDS011;8916;47.086;15.920;2023-04-29T06:37:48;9.88;;;5.47;;
17595;SDS011;8916;47.086;15.920;2023-04-29T06:40:31;11.57;;;5.68;;
17595;SDS011;8916;47.086;15.920;2023-04-29T06:43:21;9.43;;;6.13;;
17595;SDS011;8916;47.086;15.920;2023-04-29T06:46:10;8.82;;;5.55;;
17595;SDS011;8916;47.086;15.920;2023-04-29T06:48:48;8.00;;;5.70;;
17595;SDS011;8916;47.086;15.920;2023-04-29T06:51:19;9.75;;;5.88;;
17595;SDS011;8916;47.086;15.920;2023-04-29T06:53:48;9.93;;;6.35;;
17595;SDS011;8916;47.086;15.920;2023-04-29T06:56:20;8.63;;;5.75;;
17595;SDS011;8916;47.086;15.920;2023-04-29T06:58:50;9.00;;;5.90;;
17595;SDS011;8916;47.086;15.920;2023-04-29T07:01:19;8.48;;;6.25;;
17595;SDS011;8916;47.086;15.920;2023-04-29T07:03:50;9.48;;;5.40;;
17595;SDS011;8916;47.086;15.920;2023-04-29T07:06:21;10.30;;;5.40;;
17595;SDS011;8916;47.086;15.920;2023-04-29T07:08:51;8.45;;;4.72;;
17595;SDS011;8916;47.086;15.920;2023-04-29T07:11:23;7.85;;;5.63;;
17595;SDS011;8916;47.086;15.920;2023-04-29T07:13:53;9.75;;;5.40;;
17595;SDS011;8916;47.086;15.920;2023-04-29T07:16:22;9.18;;;5.40;;
17595;SDS011;8916;47.086;15.920;2023-04-29T07:18:52;6.80;;;5.03;;
17595;SDS011;8916;47.086;15.920;2023-04-29T07:21:23;7.57;;;5.10;;
17595;SDS011;8916;47.086;15.920;2023-04-29T07:23:53;7.43;;;5.05;;
17595;SDS011;8916;47.086;15.920;2023-04-29T07:26:23;12.48;;;5.45;;
17595;SDS011;8916;47.086;15.920;2023-04-29T07:28:52;9.15;;;5.15;;
17595;SDS011;8916;47.086;15.920;2023-04-29T07:31:23;9.52;;;5.43;;
17595;SDS011;8916;47.086;15.920;2023-04-29T07:33:54;9.85;;;5.65;;
17595;SDS011;8916;47.086;15.920;2023-04-29T07:36:24;9.32;;;5.07;;
17595;SDS011;8916;47.086;15.920;2023-04-29T07:38:55;7.10;;;4.47;;
17595;SDS011;8916;47.086;15.920;2023-04-29T07:41:26;6.78;;;4.68;;
17595;SDS011;8916;47.086;15.920;2023-04-29T07:43:55;6.30;;;4.53;;
17595;SDS011;8916;47.086;15.920;2023-04-29T07:46:24;7.45;;;5.05;;
17595;SDS011;8916;47.086;15.920;2023-04-29T07:48:54;7.60;;;5.20;;
17595;SDS011;8916;47.086;15.920;2023-04-29T07:51:26;8.75;;;4.43;;
17595;SDS011;8916;47.086;15.920;2023-04-29T07:53:56;7.20;;;4.65;;
17595;SDS011;8916;47.086;15.920;2023-04-29T07:56:25;10.52;;;4.68;;
17595;SDS011;8916;47.086;15.920;2023-04-29T07:58:54;6.20;;;4.25;;
17595;SDS011;8916;47.086;15.920;2023-04-29T08:01:23;4.88;;;3.40;;
17595;SDS011;8916;47.086;15.920;2023-04-29T08:03:53;5.22;;;3.20;;
17595;SDS011;8916;47.086;15.920;2023-04-29T08:06:24;4.70;;;3.22;;
17595;SDS011;8916;47.086;15.920;2023-04-29T08:08:54;6.53;;;3.22;;
17595;SDS011;8916;47.086;15.920;2023-04-29T08:11:24;4.07;;;2.90;;
17595;SDS011;8916;47.086;15.920;2023-04-29T08:13:54;5.72;;;3.05;;
17595;SDS011;8916;47.086;15.920;2023-04-29T08:16:25;5.82;;;3.38;;
17595;SDS011;8916;47.086;15.920;2023-04-29T08:18:55;6.43;;;3.00;;
17595;SDS011;8916;47.086;15.920;2023-04-29T08:21:24;7.93;;;3.33;;
17595;SDS011;8916;47.086;15.920;2023-04-29T08:23:57;4.55;;;3.13;;
17595;SDS011;8916;47.086;15.920;2023-04-29T08:26:27;3.65;;;3.05;;
17595;SDS011;8916;47.086;15.920;2023-04-29T08:28:56;4.18;;;3.00;;
17595;SDS011;8916;47.086;15.920;2023-04-29T08:31:26;3.97;;;2.55;;
17595;SDS011;8916;47.086;15.920;2023-04-29T08:33:55;2.47;;;2.00;;
17595;SDS011;8916;47.086;15.920;2023-04-29T08:36:25;3.88;;;2.53;;
17595;SDS011;8916;47.086;15.920;2023-04-29T08:38:57;3.28;;;2.67;;
17595;SDS011;8916;47.086;15.920;2023-04-29T08:41:29;3.83;;;3.00;;
17595;SDS011;8916;47.086;15.920;2023-04-29T08:43:59;5.03;;;3.08;;
17595;SDS011;8916;47.086;15.920;2023-04-29T08:46:29;4.18;;;2.95;;
17595;SDS011;8916;47.086;15.920;2023-04-29T08:49:00;6.35;;;3.30;;
17595;SDS011;8916;47.086;15.920;2023-04-29T08:51:31;5.85;;;2.90;;
17595;SDS011;8916;47.086;15.920;2023-04-29T08:54:03;5.72;;;3.28;;
17595;SDS011;8916;47.086;15.920;2023-04-29T08:56:33;5.18;;;2.92;;
17595;SDS011;8916;47.086;15.920;2023-04-29T08:59:04;4.72;;;3.20;;
17595;SDS011;8916;47.086;15.920;2023-04-29T09:01:37;4.15;;;2.75;;
17595;SDS011;8916;47.086;15.920;2023-04-29T09:04:08;4.65;;;2.90;;
17595;SDS011;8916;47.086;15.920;2023-04-29T09:06:49;5.38;;;3.22;;
17595;SDS011;8916;47.086;15.920;2023-04-29T09:09:20;4.93;;;3.00;;
17595;SDS011;8916;47.086;15.920;2023-04-29T09:11:51;4.78;;;3.22;;
17595;SDS011;8916;47.086;15.920;2023-04-29T09:14:21;3.58;;;3.17;;
17595;SDS011;8916;47.086;15.920;2023-04-29T09:16:51;5.70;;;3.05;;
17595;SDS011;8916;47.086;15.920;2023-04-29T09:19:30;4.35;;;3.38;;
17595;SDS011;8916;47.086;15.920;2023-04-29T09:22:02;3.63;;;2.92;;
17595;SDS011;8916;47.086;15.920;2023-04-29T09:24:34;5.50;;;3.03;;
17595;SDS011;8916;47.086;15.920;2023-04-29T09:27:04;3.50;;;2.90;;
17595;SDS011;8916;47.086;15.920;2023-04-29T09:29:34;5.70;;;2.92;;
17595;SDS011;8916;47.086;15.920;2023-04-29T09:32:20;4.10;;;2.47;;
17595;SDS011;8916;47.086;15.920;2023-04-29T09:34:49;3.67;;;2.28;;
17595;SDS011;8916;47.086;15.920;2023-04-29T09:37:25;4.38;;;2.83;;
17595;SDS011;8916;47.086;15.920;2023-04-29T09:39:56;3.27;;;2.80;;
17595;SDS011;8916;47.086;15.920;2023-04-29T09:42:25;3.60;;;2.53;;
17595;SDS011;8916;47.086;15.920;2023-04-29T09:44:54;3.67;;;2.65;;
17595;SDS011;8916;47.086;15.920;2023-04-29T09:47:28;3.42;;;2.53;;
17595;SDS011;8916;47.086;15.920;2023-04-29T09:50:09;3.10;;;2.30;;
17595;SDS011;8916;47.086;15.920;2023-04-29T09:52:42;6.18;;;2.88;;
17595;SDS011;8916;47.086;15.920;2023-04-29T09:55:13;3.92;;;2.65;;
17595;SDS011;8916;47.086;15.920;2023-04-29T09:57:43;3.83;;;2.28;;
17595;SDS011;8916;47.086;15.920;2023-04-29T10:00:12;4.53;;;2.78;;
17595;SDS011;8916;47.086;15.920;2023-04-29T10:02:42;4.72;;;2.70;;
17595;SDS011;8916;47.086;15.920;2023-04-29T10:05:15;6.63;;;2.58;;
17595;SDS011;8916;47.086;15.920;2023-04-29T10:07:45;3.25;;;2.53;;
17595;SDS011;8916;47.086;15.920;2023-04-29T10:10:16;3.70;;;2.50;;
17595;SDS011;8916;47.086;15.920;2023-04-29T10:12:48;3.70;;;2.20;;
17595;SDS011;8916;47.086;15.920;2023-04-29T10:15:22;6.15;;;3.25;;
17595;SDS011;8916;47.086;15.920;2023-04-29T10:18:02;3.42;;;2.80;;
17595;SDS011;8916;47.086;15.920;2023-04-29T10:20:44;4.07;;;2.40;;
17595;SDS011;8916;47.086;15.920;2023-04-29T10:23:14;3.50;;;2.50;;
17595;SDS011;8916;47.086;15.920;2023-04-29T10:25:46;2.83;;;1.90;;
17595;SDS011;8916;47.086;15.920;2023-04-29T10:28:20;2.70;;;1.60;;
17595;SDS011;8916;47.086;15.920;2023-04-29T10:30:51;5.70;;;1.77;;
17595;SDS011;8916;47.086;15.920;2023-04-29T10:33:23;2.15;;;1.70;;
17595;SDS011;8916;47.086;15.920;2023-04-29T10:35:54;4.38;;;1.80;;
17595;SDS011;8916;47.086;15.920;2023-04-29T10:38:25;2.70;;;1.83;;
17595;SDS011;8916;47.086;15.920;2023-04-29T10:41:02;2.50;;;1.83;;
17595;SDS011;8916;47.086;15.920;2023-04-29T10:43:42;5.20;;;1.90;;
17595;SDS011;8916;47.086;15.920;2023-04-29T10:46:18;2.58;;;2.03;;
17595;SDS011;8916;47.086;15.920;2023-04-29T10:48:50;2.95;;;2.00;;
17595;SDS011;8916;47.086;15.920;2023-04-29T10:51:30;2.70;;;1.83;;
17595;SDS011;8916;47.086;15.920;2023-04-29T10:54:02;2.10;;;1.90;;
17595;SDS011;8916;47.086;15.920;2023-04-29T10:56:39;2.43;;;1.73;;
17595;SDS011;8916;47.086;15.920;2023-04-29T10:59:10;1.90;;;1.60;;
17595;SDS011;8916;47.086;15.920;2023-04-29T11:01:42;1.50;;;1.40;;
17595;SDS011;8916;47.086;15.920;2023-04-29T11:04:14;2.45;;;1.70;;
17595;SDS011;8916;47.086;15.920;2023-04-29T11:06:45;2.22;;;1.60;;
17595;SDS011;8916;47.086;15.920;2023-04-29T14:18:08;0.60;;;0.60;;
17595;SDS011;8916;47.086;15.920;2023-04-29T14:20:38;1.02;;;0.50;;
